createdAt,value
2023-03-29T00:02:51.950Z,59.14
2023-03-29T00:05:20.717Z,60.15
2023-03-29T00:07:50.094Z,60.56
2023-03-29T00:10:29.786Z,60.04
2023-03-29T00:13:01.271Z,59.36
2023-03-29T00:15:29.247Z,59.03
2023-03-29T00:17:57.598Z,58.82
2023-03-29T00:20:29.145Z,58.56
2023-03-29T00:23:02.969Z,59.09
2023-03-29T00:25:31.228Z,58.04
2023-03-29T00:27:59.597Z,58.91
2023-03-29T00:30:27.546Z,58.24
2023-03-29T00:32:56.094Z,58.85
2023-03-29T00:35:24.401Z,59.04
2023-03-29T00:38:06.232Z,58.71
2023-03-29T00:40:35.163Z,58.03
2023-03-29T00:43:05.804Z,58.06
2023-03-29T00:45:33.586Z,58.33
2023-03-29T00:48:03.390Z,58.53
2023-03-29T00:50:48.189Z,58.57
2023-03-29T00:53:29.757Z,59.56
2023-03-29T00:55:57.422Z,59.42
2023-03-29T00:58:30.681Z,60.48
2023-03-29T01:01:07.284Z,61.06
2023-03-29T01:03:40.870Z,61.88
2023-03-29T01:06:09.409Z,60.28
2023-03-29T01:08:41.820Z,60.01
2023-03-29T01:11:18.091Z,59.99
2023-03-29T01:13:51.239Z,59.98
2023-03-29T01:16:20.119Z,59.26
2023-03-29T01:18:48.570Z,58.86
2023-03-29T01:21:25.409Z,58.65
2023-03-29T01:24:03.203Z,59.63
2023-03-29T01:26:40.197Z,60.18
2023-03-29T01:29:22.291Z,61.41
2023-03-29T01:31:58.221Z,61.46
2023-03-29T01:34:33.432Z,62.28
2023-03-29T01:37:04.101Z,61.25
2023-03-29T01:39:33.666Z,62.61
2023-03-29T01:42:17.301Z,62.92
2023-03-29T01:44:59.043Z,62.18
2023-03-29T01:47:36.446Z,63.89
2023-03-29T01:50:32.536Z,63.72
2023-03-29T01:53:06.264Z,62.95
2023-03-29T01:55:37.287Z,63.72
2023-03-29T01:58:06.641Z,64.53
2023-03-29T02:00:35.460Z,63.76
2023-03-29T02:03:08.190Z,63.48
2023-03-29T02:05:37.279Z,63.60
2023-03-29T02:08:07.867Z,64.29
2023-03-29T02:10:36.002Z,63.57
2023-03-29T02:13:05.129Z,62.87
2023-03-29T02:15:33.921Z,62.54
2023-03-29T02:18:04.789Z,64.06
2023-03-29T02:20:35.888Z,63.20
2023-03-29T02:23:09.559Z,63.11
2023-03-29T02:25:37.365Z,62.68
2023-03-29T02:28:06.424Z,62.81
2023-03-29T02:30:57.335Z,62.82
2023-03-29T02:33:41.342Z,62.26
2023-03-29T02:36:21.907Z,62.70
2023-03-29T02:38:52.743Z,62.23
2023-03-29T02:41:22.466Z,62.46
2023-03-29T02:43:50.748Z,62.55
2023-03-29T02:46:19.125Z,63.28
2023-03-29T02:48:48.664Z,63.77
2023-03-29T02:51:22.735Z,64.88
2023-03-29T02:54:12.731Z,64.41
2023-03-29T02:56:56.442Z,64.24
2023-03-29T02:59:24.297Z,63.63
2023-03-29T03:01:52.736Z,64.10
2023-03-29T03:04:20.930Z,63.90
2023-03-29T03:06:49.243Z,63.66
2023-03-29T03:09:17.465Z,64.01
2023-03-29T03:11:45.625Z,64.10
2023-03-29T03:14:13.396Z,64.54
2023-03-29T03:16:41.488Z,65.30
2023-03-29T03:19:09.499Z,65.75
2023-03-29T03:21:37.110Z,66.45
2023-03-29T03:24:05.758Z,66.28
2023-03-29T03:26:33.838Z,66.06
2023-03-29T03:29:01.632Z,65.63
2023-03-29T03:31:31.861Z,66.69
2023-03-29T03:34:01.989Z,66.80
2023-03-29T03:36:30.343Z,67.05
2023-03-29T03:38:58.155Z,67.00
2023-03-29T03:41:26.316Z,67.27
2023-03-29T03:43:54.754Z,66.67
2023-03-29T03:46:23.210Z,66.99
2023-03-29T03:48:51.005Z,68.23
2023-03-29T03:51:19.477Z,67.32
2023-03-29T03:53:47.135Z,66.98
2023-03-29T03:56:17.207Z,66.79
2023-03-29T03:58:45.670Z,67.99
2023-03-29T04:01:13.865Z,68.22
2023-03-29T04:03:42.696Z,68.79
2023-03-29T04:06:13.127Z,67.44
2023-03-29T04:08:41.664Z,67.58
2023-03-29T04:11:10.177Z,67.97
2023-03-29T04:13:37.967Z,68.26
2023-03-29T04:16:07.446Z,68.61
2023-03-29T04:18:35.557Z,68.68
2023-03-29T04:21:03.754Z,68.29
2023-03-29T04:23:33.950Z,67.73
2023-03-29T04:26:02.029Z,67.41
2023-03-29T04:28:31.678Z,67.62
2023-03-29T04:31:00.703Z,67.67
2023-03-29T04:33:29.611Z,68.01
2023-03-29T04:35:59.359Z,68.26
2023-03-29T04:38:27.138Z,68.34
2023-03-29T04:40:55.924Z,68.68
2023-03-29T04:43:24.001Z,68.09
2023-03-29T04:45:53.318Z,68.23
2023-03-29T04:48:24.159Z,68.42
2023-03-29T04:50:51.901Z,67.43
2023-03-29T04:53:21.177Z,66.90
2023-03-29T04:55:50.008Z,67.85
2023-03-29T04:58:20.746Z,67.68
2023-03-29T05:00:50.238Z,68.45
2023-03-29T05:03:19.442Z,68.15
2023-03-29T05:05:48.003Z,67.58
2023-03-29T05:08:16.095Z,68.33
2023-03-29T05:10:45.431Z,68.37
2023-03-29T05:13:13.632Z,68.12
2023-03-29T05:15:42.510Z,66.85
2023-03-29T05:18:10.318Z,66.56
2023-03-29T05:20:38.008Z,65.94
2023-03-29T05:23:06.196Z,64.95
2023-03-29T05:25:36.881Z,64.10
2023-03-29T05:28:04.801Z,63.82
2023-03-29T05:30:33.260Z,64.28
2023-03-29T05:33:04.361Z,63.51
2023-03-29T05:35:33.040Z,63.69
2023-03-29T05:38:01.154Z,62.11
2023-03-29T05:40:28.858Z,61.61
2023-03-29T05:42:58.628Z,61.46
2023-03-29T05:45:26.374Z,61.41
2023-03-29T05:47:54.725Z,60.35
2023-03-29T05:50:22.945Z,60.38
2023-03-29T05:52:50.746Z,62.06
2023-03-29T05:55:18.750Z,61.80
2023-03-29T05:57:46.826Z,61.75
2023-03-29T06:00:15.444Z,60.73
2023-03-29T06:02:43.571Z,59.58
2023-03-29T06:05:12.018Z,59.67
2023-03-29T06:07:40.015Z,58.75
2023-03-29T06:10:10.149Z,58.28
2023-03-29T06:12:38.962Z,58.63
2023-03-29T06:15:06.962Z,59.35
2023-03-29T06:17:35.300Z,59.41
2023-03-29T06:20:03.276Z,59.20
2023-03-29T06:22:31.565Z,59.35
2023-03-29T06:24:59.552Z,59.20
2023-03-29T06:27:27.535Z,59.48
2023-03-29T06:29:55.452Z,58.79
2023-03-29T06:32:23.474Z,58.52
2023-03-29T06:34:51.649Z,57.26
2023-03-29T06:37:19.822Z,58.25
2023-03-29T06:39:50.818Z,57.25
2023-03-29T06:42:21.839Z,57.61
2023-03-29T06:44:50.410Z,59.43
2023-03-29T06:47:18.382Z,57.97
2023-03-29T06:49:46.087Z,58.69
2023-03-29T06:52:14.552Z,56.96
2023-03-29T06:54:43.040Z,56.96
2023-03-29T06:57:10.842Z,56.93
2023-03-29T06:59:39.214Z,57.37
2023-03-29T07:02:09.499Z,57.41
2023-03-29T07:04:38.954Z,57.71
2023-03-29T07:07:07.456Z,56.41
2023-03-29T07:09:35.539Z,56.30
2023-03-29T07:12:04.953Z,55.37
2023-03-29T07:14:33.249Z,55.75
2023-03-29T07:17:00.842Z,56.83
2023-03-29T07:19:29.110Z,55.23
2023-03-29T07:21:59.278Z,54.63
2023-03-29T07:24:29.189Z,55.01
2023-03-29T07:27:04.205Z,54.52
2023-03-29T07:29:33.803Z,54.54
2023-03-29T07:32:02.241Z,53.37
2023-03-29T07:34:31.986Z,52.40
2023-03-29T07:37:00.031Z,49.88
2023-03-29T07:39:28.063Z,51.19
2023-03-29T07:41:57.750Z,49.22
2023-03-29T07:44:25.858Z,49.95
2023-03-29T07:46:54.129Z,49.18
2023-03-29T07:49:22.280Z,48.12
2023-03-29T07:51:50.052Z,48.84
2023-03-29T07:54:17.985Z,48.65
2023-03-29T07:56:46.770Z,48.88
2023-03-29T07:59:15.644Z,46.27
2023-03-29T08:01:43.854Z,44.73
2023-03-29T08:04:12.107Z,45.12
2023-03-29T08:06:42.841Z,43.39
2023-03-29T08:09:10.502Z,43.29
2023-03-29T08:11:42.942Z,42.60
2023-03-29T08:19:34.236Z,41.77
2023-03-29T08:28:06.975Z,39.36
2023-03-29T08:33:05.580Z,39.14
2023-03-29T08:35:33.698Z,38.18
2023-03-29T08:38:03.790Z,38.53
2023-03-29T08:40:31.910Z,39.07
2023-03-29T08:43:12.286Z,39.50
2023-03-29T08:46:05.600Z,37.64
2023-03-29T08:48:44.523Z,37.12
2023-03-29T08:51:31.765Z,37.81
2023-03-29T08:54:06.441Z,36.95
2023-03-29T08:56:38.593Z,37.68
2023-03-29T08:59:24.986Z,36.51
2023-03-29T09:01:56.197Z,37.78
2023-03-29T09:04:27.833Z,37.37
2023-03-29T09:06:56.723Z,37.50
2023-03-29T09:09:33.630Z,37.10
2023-03-29T09:12:08.375Z,35.93
2023-03-29T09:14:55.201Z,38.18
2023-03-29T09:17:52.289Z,38.28
2023-03-29T09:20:40.819Z,36.49
2023-03-29T09:23:11.974Z,36.42
2023-03-29T09:25:54.303Z,36.39
2023-03-29T09:28:31.459Z,35.92
2023-03-29T09:31:11.457Z,34.28
2023-03-29T09:33:59.307Z,33.85
2023-03-29T09:36:33.214Z,32.97
2023-03-29T09:39:01.554Z,33.09
2023-03-29T09:41:35.269Z,33.26
2023-03-29T09:44:10.869Z,33.94
2023-03-29T09:46:50.151Z,32.46
2023-03-29T09:49:21.385Z,32.54
2023-03-29T09:51:49.775Z,32.06
2023-03-29T09:54:18.774Z,33.02
2023-03-29T09:56:47.767Z,34.08
2023-03-29T09:59:16.531Z,31.77
2023-03-29T10:01:44.393Z,33.02
2023-03-29T10:04:14.989Z,31.49
2023-03-29T10:06:46.062Z,31.43
2023-03-29T10:09:17.291Z,32.97
2023-03-29T10:11:52.239Z,32.93
2023-03-29T10:14:33.706Z,31.71
2023-03-29T10:17:05.666Z,30.78
2023-03-29T10:19:35.396Z,31.44
2023-03-29T10:22:27.457Z,31.87
2023-03-29T10:24:58.685Z,32.68
2023-03-29T10:27:28.458Z,30.55
2023-03-29T10:29:59.652Z,31.45
2023-03-29T10:32:32.097Z,31.77
2023-03-29T10:35:07.911Z,32.55
2023-03-29T10:37:35.492Z,32.50
2023-03-29T10:40:03.958Z,32.67
2023-03-29T10:42:32.031Z,33.72
2023-03-29T10:44:59.870Z,31.83
2023-03-29T10:47:31.870Z,32.30
2023-03-29T10:50:02.266Z,32.13
2023-03-29T10:52:30.495Z,30.96
2023-03-29T10:54:58.176Z,30.65
2023-03-29T10:57:42.824Z,30.45
2023-03-29T11:00:18.235Z,30.42
2023-03-29T11:03:07.766Z,30.61
2023-03-29T11:05:54.293Z,30.82
2023-03-29T11:08:29.740Z,30.91
2023-03-29T11:11:32.023Z,30.46
2023-03-29T11:14:02.357Z,30.57
2023-03-29T11:16:32.178Z,28.91
2023-03-29T11:19:24.146Z,30.57
2023-03-29T11:22:10.137Z,30.93
2023-03-29T11:25:13.843Z,30.68
2023-03-29T11:27:57.889Z,31.13
2023-03-29T11:30:32.922Z,29.95
2023-03-29T11:36:37.483Z,30.08
2023-03-29T11:39:12.093Z,31.09
2023-03-29T11:41:43.110Z,31.03
2023-03-29T11:44:21.132Z,30.70
2023-03-29T11:47:20.282Z,31.58
2023-03-29T11:49:51.979Z,33.15
2023-03-29T11:52:36.135Z,32.50
2023-03-29T11:55:10.255Z,30.98
2023-03-29T11:57:40.480Z,30.68
2023-03-29T12:00:22.961Z,33.44
2023-03-29T12:03:22.141Z,30.10
2023-03-29T12:05:52.736Z,30.57
2023-03-29T12:08:27.027Z,32.68
2023-03-29T12:11:22.984Z,30.01
2023-03-29T12:13:57.741Z,31.21
2023-03-29T12:16:35.767Z,31.18
2023-03-29T12:19:32.883Z,30.37
2023-03-29T12:22:01.237Z,32.54
2023-03-29T12:24:31.520Z,32.54
2023-03-29T12:27:20.936Z,31.69
2023-03-29T12:30:04.619Z,32.72
2023-03-29T12:32:41.819Z,31.41
2023-03-29T12:35:22.764Z,31.06
2023-03-29T12:38:10.588Z,33.23
2023-03-29T12:40:44.590Z,31.96
2023-03-29T12:43:33.307Z,32.00
2023-03-29T12:46:07.619Z,30.12
2023-03-29T12:48:38.593Z,31.25
2023-03-29T12:51:18.740Z,31.67
2023-03-29T12:53:48.903Z,33.68
2023-03-29T12:56:20.206Z,32.83
2023-03-29T12:58:55.455Z,33.11
2023-03-29T13:01:30.534Z,33.79
2023-03-29T13:04:01.381Z,32.83
2023-03-29T13:06:34.913Z,33.06
2023-03-29T13:09:19.869Z,32.18
2023-03-29T13:11:55.011Z,32.66
2023-03-29T13:14:26.462Z,31.63
2023-03-29T13:17:17.711Z,32.77
2023-03-29T13:19:47.787Z,31.43
2023-03-29T13:22:49.981Z,31.69
2023-03-29T13:25:25.971Z,31.15
2023-03-29T13:27:53.991Z,33.64
2023-03-29T13:30:31.814Z,33.16
2023-03-29T13:33:18.876Z,33.95
2023-03-29T13:36:34.754Z,33.51
2023-03-29T13:39:04.513Z,34.40
2023-03-29T13:41:39.078Z,34.95
2023-03-29T13:44:41.188Z,34.79
2023-03-29T13:47:36.723Z,34.81
2023-03-29T13:50:35.251Z,33.44
2023-03-29T13:53:22.252Z,32.53
2023-03-29T13:55:52.492Z,32.78
2023-03-29T13:58:38.534Z,34.05
2023-03-29T14:01:23.690Z,32.62
2023-03-29T14:03:53.299Z,33.39
2023-03-29T14:06:32.364Z,32.81
2023-03-29T14:09:06.061Z,31.87
2023-03-29T14:11:33.926Z,32.79
2023-03-29T14:14:04.166Z,32.21
2023-03-29T14:16:35.914Z,32.98
2023-03-29T14:19:06.481Z,33.25
2023-03-29T14:21:34.268Z,34.05
2023-03-29T14:24:02.294Z,35.17
2023-03-29T14:26:37.519Z,36.33
2023-03-29T14:29:06.897Z,37.07
2023-03-29T14:31:36.763Z,37.40
2023-03-29T14:34:06.706Z,36.81
2023-03-29T14:36:34.378Z,35.65
2023-03-29T14:39:11.624Z,35.51
2023-03-29T14:41:39.654Z,35.07
2023-03-29T14:44:08.051Z,36.85
2023-03-29T14:46:36.099Z,37.03
2023-03-29T14:49:04.100Z,36.09
2023-03-29T14:51:32.566Z,37.23
2023-03-29T14:54:00.900Z,35.04
2023-03-29T14:56:29.166Z,35.67
2023-03-29T14:58:57.591Z,36.54
2023-03-29T15:01:26.369Z,38.17
2023-03-29T15:03:56.595Z,37.69
2023-03-29T15:06:26.303Z,38.79
2023-03-29T15:09:05.092Z,37.73
2023-03-29T15:11:34.660Z,38.79
2023-03-29T15:14:04.662Z,39.30
2023-03-29T15:16:33.302Z,39.71
2023-03-29T15:19:04.850Z,40.17
2023-03-29T15:21:35.587Z,39.77
2023-03-29T15:24:05.059Z,40.59
2023-03-29T15:26:35.000Z,40.94
2023-03-29T15:29:12.655Z,40.47
2023-03-29T15:31:54.350Z,40.88
2023-03-29T15:34:27.938Z,40.89
2023-03-29T15:36:55.965Z,38.89
2023-03-29T15:39:25.444Z,39.22
2023-03-29T15:41:53.852Z,40.11
2023-03-29T15:44:27.030Z,40.72
2023-03-29T15:46:56.005Z,40.20
2023-03-29T15:49:23.843Z,39.23
2023-03-29T15:51:52.488Z,39.36
2023-03-29T15:54:23.729Z,38.55
2023-03-29T15:56:54.312Z,39.42
2023-03-29T15:59:22.969Z,40.26
2023-03-29T16:01:50.984Z,40.49
2023-03-29T16:04:20.501Z,40.22
2023-03-29T16:06:50.204Z,39.87
2023-03-29T16:09:17.850Z,40.14
2023-03-29T16:11:46.384Z,39.94
2023-03-29T16:14:24.032Z,40.15
2023-03-29T16:16:52.971Z,40.32
2023-03-29T16:19:20.871Z,41.29
2023-03-29T16:21:48.608Z,41.40
2023-03-29T16:24:25.028Z,42.27
2023-03-29T16:26:55.332Z,41.76
2023-03-29T16:29:24.710Z,41.63
2023-03-29T16:31:53.416Z,42.13
2023-03-29T16:34:21.805Z,42.67
2023-03-29T16:36:49.945Z,42.85
2023-03-29T16:39:17.639Z,42.75
2023-03-29T16:41:45.594Z,42.97
2023-03-29T16:44:16.945Z,43.35
2023-03-29T16:46:44.933Z,44.09
2023-03-29T16:49:14.452Z,44.83
2023-03-29T16:51:42.530Z,45.07
2023-03-29T16:54:10.350Z,45.63
2023-03-29T16:56:38.460Z,45.30
2023-03-29T16:59:06.278Z,45.47
2023-03-29T17:01:34.439Z,44.96
2023-03-29T17:04:02.471Z,45.95
2023-03-29T17:06:30.370Z,45.64
2023-03-29T17:08:58.944Z,45.75
2023-03-29T17:11:27.485Z,46.38
2023-03-29T17:13:55.239Z,45.85
2023-03-29T17:16:23.007Z,46.09
2023-03-29T17:18:51.098Z,46.70
2023-03-29T17:21:23.112Z,47.57
2023-03-29T17:23:56.350Z,46.67
2023-03-29T17:26:24.168Z,47.04
2023-03-29T17:28:56.675Z,47.78
2023-03-29T17:31:24.907Z,47.30
2023-03-29T17:33:52.759Z,47.49
2023-03-29T17:36:20.683Z,47.07
2023-03-29T17:38:49.737Z,46.41
2023-03-29T17:41:18.097Z,46.61
2023-03-29T17:43:49.274Z,47.49
2023-03-29T17:46:18.991Z,46.78
2023-03-29T17:48:47.101Z,47.75
2023-03-29T17:51:15.511Z,47.04
2023-03-29T17:53:44.013Z,46.81
2023-03-29T17:56:14.716Z,47.76
2023-03-29T17:58:43.097Z,47.66
2023-03-29T18:01:12.157Z,47.53
2023-03-29T18:03:42.049Z,47.42
2023-03-29T18:06:10.266Z,47.83
2023-03-29T18:08:38.832Z,48.21
2023-03-29T18:11:18.465Z,48.72
2023-03-29T18:13:46.387Z,48.05
2023-03-29T18:16:14.888Z,48.32
2023-03-29T18:18:43.042Z,48.68
2023-03-29T18:21:11.448Z,48.61
2023-03-29T18:23:44.413Z,49.47
2023-03-29T18:26:12.539Z,49.01
2023-03-29T18:28:41.581Z,48.94
2023-03-29T18:31:10.805Z,49.90
2023-03-29T18:33:42.307Z,49.83
2023-03-29T18:36:12.970Z,50.48
2023-03-29T18:38:45.709Z,50.33
2023-03-29T18:41:14.135Z,50.60
2023-03-29T18:43:44.555Z,51.22
2023-03-29T18:46:13.075Z,50.99
2023-03-29T18:48:41.563Z,51.55
2023-03-29T18:51:12.021Z,51.00
2023-03-29T18:53:40.503Z,51.90
2023-03-29T18:56:08.269Z,52.28
2023-03-29T18:58:36.348Z,52.38
2023-03-29T19:01:05.869Z,52.47
2023-03-29T19:03:34.733Z,52.99
2023-03-29T19:06:04.042Z,53.05
2023-03-29T19:08:33.062Z,53.81
2023-03-29T19:11:02.531Z,53.65
2023-03-29T19:13:30.630Z,53.73
2023-03-29T19:15:58.803Z,54.17
2023-03-29T19:18:27.138Z,54.25
2023-03-29T19:20:55.294Z,54.82
2023-03-29T19:23:24.453Z,54.11
2023-03-29T19:25:57.372Z,54.46
2023-03-29T19:28:26.131Z,54.86
2023-03-29T19:30:54.714Z,54.74
2023-03-29T19:33:22.701Z,55.06
2023-03-29T19:35:51.584Z,54.41
2023-03-29T19:38:20.484Z,54.40
2023-03-29T19:40:50.149Z,54.30
2023-03-29T19:43:19.072Z,53.71
2023-03-29T19:45:48.358Z,54.01
2023-03-29T19:48:22.532Z,54.24
2023-03-29T19:50:52.345Z,54.72
2023-03-29T19:53:20.281Z,54.27
2023-03-29T19:55:48.012Z,54.57
2023-03-29T19:58:16.157Z,54.82
2023-03-29T20:00:43.901Z,55.49
2023-03-29T20:03:12.619Z,56.05
2023-03-29T20:05:40.685Z,55.34
2023-03-29T20:08:09.067Z,54.49
2023-03-29T20:10:37.118Z,54.70
2023-03-29T20:13:04.950Z,54.92
2023-03-29T20:15:33.162Z,54.69
2023-03-29T20:18:01.522Z,54.64
2023-03-29T20:20:29.382Z,55.54
2023-03-29T20:22:57.352Z,56.15
2023-03-29T20:25:25.384Z,56.20
2023-03-29T20:27:53.333Z,56.17
2023-03-29T20:30:21.116Z,56.49
2023-03-29T20:32:49.643Z,57.04
2023-03-29T20:35:17.442Z,57.15
2023-03-29T20:37:45.093Z,56.19
2023-03-29T20:40:13.312Z,56.72
2023-03-29T20:42:41.434Z,56.77
2023-03-29T20:45:09.590Z,57.52
2023-03-29T20:47:37.473Z,57.44
2023-03-29T20:50:05.696Z,57.35
2023-03-29T20:52:33.518Z,57.64
2023-03-29T20:55:01.507Z,58.64
2023-03-29T20:57:30.574Z,58.18
2023-03-29T20:59:58.434Z,58.67
2023-03-29T21:02:26.543Z,58.52
2023-03-29T21:04:54.339Z,58.57
2023-03-29T21:07:21.956Z,58.35
2023-03-29T21:09:50.173Z,58.19
2023-03-29T21:12:17.785Z,58.97
2023-03-29T21:14:45.438Z,58.92
2023-03-29T21:17:13.394Z,58.23
2023-03-29T21:19:41.182Z,57.96
2023-03-29T21:22:09.228Z,58.35
2023-03-29T21:24:37.180Z,59.26
2023-03-29T21:27:05.527Z,59.36
2023-03-29T21:29:33.417Z,58.95
2023-03-29T21:32:01.512Z,59.54
2023-03-29T21:34:29.119Z,59.77
2023-03-29T21:36:56.753Z,59.54
2023-03-29T21:39:26.331Z,59.85
2023-03-29T21:41:54.395Z,60.31
2023-03-29T21:44:22.116Z,59.49
2023-03-29T21:46:50.054Z,59.14
2023-03-29T21:49:18.016Z,59.84
2023-03-29T21:51:46.391Z,59.68
2023-03-29T21:54:14.280Z,59.91
2023-03-29T21:56:42.055Z,60.39
2023-03-29T21:59:09.959Z,60.12
2023-03-29T22:01:37.878Z,59.64
2023-03-29T22:04:05.823Z,60.45
2023-03-29T22:06:33.600Z,60.60
2023-03-29T22:09:01.644Z,60.18
2023-03-29T22:11:30.566Z,59.89
2023-03-29T22:13:58.441Z,59.75
2023-03-29T22:16:26.160Z,59.55
2023-03-29T22:18:54.306Z,59.56
2023-03-29T22:21:24.057Z,59.91
2023-03-29T22:23:54.744Z,59.55
2023-03-29T22:26:25.060Z,59.46
2023-03-29T22:28:53.207Z,59.52
2023-03-29T22:31:22.260Z,59.70
2023-03-29T22:33:50.390Z,59.49
2023-03-29T22:36:23.684Z,59.41
2023-03-29T22:38:52.307Z,59.68
2023-03-29T22:41:21.360Z,59.89
2023-03-29T22:43:51.344Z,59.52
2023-03-29T22:46:19.744Z,59.54
2023-03-29T22:48:47.870Z,58.87
2023-03-29T22:51:15.725Z,59.36
2023-03-29T22:53:44.058Z,59.23
2023-03-29T22:56:11.716Z,59.89
2023-03-29T22:58:39.483Z,60.02
2023-03-29T23:01:07.614Z,60.02
2023-03-29T23:03:35.760Z,60.10
2023-03-29T23:06:03.697Z,60.31
2023-03-29T23:08:33.026Z,59.82
2023-03-29T23:11:01.911Z,59.53
2023-03-29T23:13:30.102Z,59.86
2023-03-29T23:15:59.328Z,60.43
2023-03-29T23:18:28.860Z,60.49
2023-03-29T23:20:57.674Z,60.39
2023-03-29T23:23:27.095Z,61.42
2023-03-29T23:25:55.252Z,61.93
2023-03-29T23:28:25.498Z,61.95
2023-03-29T23:30:58.782Z,61.51
2023-03-29T23:33:27.048Z,61.95
2023-03-29T23:35:55.151Z,62.41
2023-03-29T23:38:23.066Z,62.82
2023-03-29T23:40:59.176Z,62.65
2023-03-29T23:43:31.489Z,62.89
2023-03-29T23:46:00.689Z,63.77
2023-03-29T23:48:29.215Z,63.28
2023-03-29T23:50:57.195Z,63.83
2023-03-29T23:53:25.955Z,63.61
2023-03-29T23:56:01.262Z,64.07
2023-03-29T23:58:33.442Z,63.93
